Main page
METAR-TAF:

METAR-TAF

Airports :

Melilla Airport

Melilla, Spain

latitude: 35-17N, longitude: 002-57W, elevation: 47 m

Current weather observation

The report was made 21 minutes ago, at 04:30 UTC
Wind 9 kt from the West, varying between Southwest and Northwest
Temperature 24°C
Humidity 69%
Pressure 1011 hPa
Visibility 10 km or more
no clouds below 1500 m and no cumulonimbus

METAR: GEML 150430Z 28009KT 230V320 CAVOK 24/18 Q1011

Time: 06:51 (04:51 UTC)

Forecast

The report was made 5 hours and 51 minutes ago, at 23:00 UTC
Forecast valid from 15 at 00 UTC to 15 at 24 UTC
Wind 10 kt from the West
Visibility 10 km or more
no clouds below 1500 m and no cumulonimbus
Probability 40% :
Temporary
from 15 at 00 UTC to 15 at 10 UTC
Wind 17 kt from the West/Northwest with gusts up to 27 kt

TAF: GEML 142300Z 1500/1524 27010KT CAVOK TX29/1514Z TN25/1505Z PROB40 TEMPO 1500/1510 30017G27KT

Weather observations and forecasts of more than 4000 airports (METAR and TAF reports).

The available stations are represented by yellow and red dots on the map.

Hover mouse over dot to see the name of the station.

Then click to see weather observations and forecasts.

To change the map : click on the green buttons with a black cross to zoom in, on the green button with a dash to zoom out, or on the green arrows for adjacent maps.


METAR-TAF: